Time;durP1;ratioP1;P1;durP2;ratioP2;P2;SDS_P1;SDS_P2;PMS_P1;PMS_P2;Temp;Humidity;BMP_temperature;BMP_pressure;BME280_temperature;BME280_humidity;BME280_pressure;Samples;Min_cycle;Max_cycle;Signal;HPM_P1;HPM_P2
2021/06/22 00:01:58;;;;;;;19.03;8.23;;;;;;;;;;5024135;28;20045;-59
2021/06/22 00:04:25;;;;;;;21.42;8.52;;;;;;;;;;5033552;28;20296;-59
2021/06/22 00:06:52;;;;;;;14.50;7.70;;;;;;;;;;5045524;28;20064;-59
2021/06/22 00:09:18;;;;;;;16.40;8.20;;;;;;;;;;5024936;28;20294;-59
2021/06/22 00:11:45;;;;;;;17.55;8.88;;;;;;;;;;5043061;28;20558;-59
2021/06/22 00:14:12;;;;;;;25.40;9.65;;;;;;;;;;5040012;28;20120;-59
2021/06/22 00:16:39;;;;;;;24.70;8.60;;;;;;;;;;5037888;28;20049;-59
2021/06/22 00:19:06;;;;;;;20.55;8.45;;;;;;;;;;5036066;28;20030;-59
2021/06/22 00:21:32;;;;;;;23.10;8.10;;;;;;;;;;5035973;28;20398;-59
2021/06/22 00:23:59;;;;;;;18.27;7.93;;;;;;;;;;5029758;28;20034;-59
2021/06/22 00:26:26;;;;;;;22.25;8.13;;;;;;;;;;5035878;28;20127;-59
2021/06/22 00:28:52;;;;;;;17.70;8.93;;;;;;;;;;5023793;28;20029;-59
2021/06/22 00:31:19;;;;;;;18.50;8.15;;;;;;;;;;5024639;28;20073;-59
2021/06/22 00:33:46;;;;;;;21.10;9.20;;;;;;;;;;5038264;28;20045;-59
2021/06/22 00:36:13;;;;;;;26.27;9.65;;;;;;;;;;5040672;28;20493;-59
2021/06/22 00:38:40;;;;;;;22.33;8.57;;;;;;;;;;5033908;28;20041;-59
2021/06/22 00:41:07;;;;;;;19.73;9.15;;;;;;;;;;5033103;28;20067;-60
2021/06/22 00:43:39;;;;;;;21.38;8.98;;;;;;;;;;5025803;28;20045;-59
2021/06/22 00:46:07;;;;;;;20.20;8.65;;;;;;;;;;5045501;28;20069;-59
2021/06/22 00:48:34;;;;;;;18.73;8.93;;;;;;;;;;5029797;28;20049;-59
2021/06/22 00:51:01;;;;;;;24.03;9.93;;;;;;;;;;5028783;28;20110;-59
2021/06/22 00:53:28;;;;;;;19.65;9.07;;;;;;;;;;5030971;28;20289;-59
2021/06/22 00:55:55;;;;;;;20.98;9.30;;;;;;;;;;5031781;28;20461;-59
2021/06/22 00:58:29;;;;;;;19.77;9.65;;;;;;;;;;5027736;28;20575;-59
2021/06/22 01:00:59;;;;;;;18.63;9.07;;;;;;;;;;5030578;28;20466;-59
2021/06/22 01:03:25;;;;;;;19.35;9.52;;;;;;;;;;5032580;28;20448;-59
2021/06/22 01:05:57;;;;;;;24.58;8.75;;;;;;;;;;5035419;28;20045;-59
2021/06/22 01:08:25;;;;;;;18.02;9.07;;;;;;;;;;5032817;28;20653;-60
2021/06/22 01:10:53;;;;;;;17.85;8.70;;;;;;;;;;5035952;28;20042;-59
2021/06/22 01:13:20;;;;;;;21.23;9.07;;;;;;;;;;5027730;28;20045;-60
2021/06/22 01:15:48;;;;;;;19.08;9.63;;;;;;;;;;5027775;28;20069;-59
2021/06/22 01:18:17;;;;;;;20.10;8.68;;;;;;;;;;5030902;28;20053;-59
2021/06/22 01:21:05;;;;;;;21.92;8.52;;;;;;;;;;5033954;28;20052;-59
2021/06/22 01:23:54;;;;;;;20.88;9.23;;;;;;;;;;5032903;28;20046;-59
2021/06/22 01:26:22;;;;;;;18.10;8.45;;;;;;;;;;5036596;28;20132;-59
2021/06/22 01:28:48;;;;;;;20.97;8.63;;;;;;;;;;5032287;28;20645;-59
2021/06/22 01:31:16;;;;;;;;;;;;;;;;;;5035973;28;21010;-59
2021/06/22 01:33:46;;;;;;;20.02;8.65;;;;;;;;;;5026627;28;19945;-59
2021/06/22 01:36:19;;;;;;;21.20;9.55;;;;;;;;;;5033104;28;20252;-59
2021/06/22 01:38:46;;;;;;;;;;;;;;;;;;5027869;28;20065;-59
2021/06/22 01:41:14;;;;;;;17.02;8.63;;;;;;;;;;5030608;28;19925;-59
2021/06/22 01:43:42;;;;;;;20.63;8.70;;;;;;;;;;5030020;28;20099;-59
2021/06/22 01:46:08;;;;;;;23.40;9.15;;;;;;;;;;5031027;28;20033;-59
2021/06/22 01:48:41;;;;;;;23.20;9.55;;;;;;;;;;5026017;28;20045;-59
2021/06/22 01:51:09;;;;;;;;;;;;;;;;;;5031769;28;20505;-59
2021/06/22 01:53:36;;;;;;;20.40;9.07;;;;;;;;;;5025290;28;19929;-59
2021/06/22 01:56:11;;;;;;;24.73;9.40;;;;;;;;;;5025161;28;20054;-58
2021/06/22 01:58:46;;;;;;;14.50;8.65;;;;;;;;;;5031124;28;20132;-59
2021/06/22 02:01:33;;;;;;;26.48;9.50;;;;;;;;;;5025014;28;20132;-59
2021/06/22 02:04:11;;;;;;;29.95;9.02;;;;;;;;;;5030940;28;20512;-59
2021/06/22 02:06:38;;;;;;;23.35;9.57;;;;;;;;;;5037170;28;20056;-59
2021/06/22 02:09:44;;;;;;;18.08;8.82;;;;;;;;;;5027694;28;20047;-59
2021/06/22 02:12:20;;;;;;;17.40;8.55;;;;;;;;;;5016845;28;20064;-59
2021/06/22 02:14:48;;;;;;;16.48;9.02;;;;;;;;;;5029990;28;20037;-59
2021/06/22 02:17:16;;;;;;;22.02;8.70;;;;;;;;;;5035487;28;20126;-59
2021/06/22 02:19:43;;;;;;;18.77;10.00;;;;;;;;;;5033814;28;20053;-59
2021/06/22 02:22:23;;;;;;;19.73;9.80;;;;;;;;;;5033906;28;20438;-59
2021/06/22 02:24:53;;;;;;;18.38;9.30;;;;;;;;;;5021051;28;20050;-59
2021/06/22 02:27:21;;;;;;;;;;;;;;;;;;5029061;28;20043;-59
2021/06/22 02:29:47;;;;;;;22.42;9.55;;;;;;;;;;5028066;28;19975;-59
2021/06/22 02:32:14;;;;;;;20.70;9.27;;;;;;;;;;5036572;28;20133;-59
2021/06/22 02:34:42;;;;;;;;;;;;;;;;;;5029453;28;20095;-59
2021/06/22 02:37:08;;;;;;;17.67;9.30;;;;;;;;;;5022229;28;19921;-59
2021/06/22 02:39:39;;;;;;;18.25;9.00;;;;;;;;;;5028835;28;20421;-60
2021/06/22 02:42:07;;;;;;;23.67;8.80;;;;;;;;;;5044355;28;20050;-59
2021/06/22 02:44:34;;;;;;;20.35;9.20;;;;;;;;;;5031884;28;20060;-59
2021/06/22 02:47:02;;;;;;;27.27;9.50;;;;;;;;;;5032633;28;20128;-59
2021/06/22 02:49:31;;;;;;;19.30;9.85;;;;;;;;;;5033380;28;20050;-59
2021/06/22 02:51:58;;;;;;;20.23;10.00;;;;;;;;;;5028020;28;20060;-60
2021/06/22 02:54:27;;;;;;;15.77;9.20;;;;;;;;;;5050817;28;20405;-59
2021/06/22 02:56:54;;;;;;;14.27;8.93;;;;;;;;;;5046536;28;20048;-59
2021/06/22 02:59:23;;;;;;;20.80;9.60;;;;;;;;;;5027058;28;20088;-59
2021/06/22 03:01:50;;;;;;;17.15;9.10;;;;;;;;;;5032984;28;20029;-59
2021/06/22 03:04:17;;;;;;;23.77;9.93;;;;;;;;;;5037364;28;20045;-59
2021/06/22 03:06:44;;;;;;;24.23;9.88;;;;;;;;;;5036760;28;20124;-59
2021/06/22 03:09:17;;;;;;;19.38;9.00;;;;;;;;;;5040276;28;20068;-59
2021/06/22 03:11:49;;;;;;;20.15;9.50;;;;;;;;;;5036717;28;20077;-59
2021/06/22 03:14:18;;;;;;;19.50;9.70;;;;;;;;;;5040447;28;20069;-60
2021/06/22 03:17:11;;;;;;;24.90;9.75;;;;;;;;;;5031100;28;20060;-59
2021/06/22 03:19:42;;;;;;;20.85;9.45;;;;;;;;;;5037561;28;20045;-59
2021/06/22 03:22:10;;;;;;;15.77;7.55;;;;;;;;;;5037346;28;20124;-59
2021/06/22 04:26:31;;;;;;;17.42;10.10;;;;;;;;;;5124644;27;20429;-60
2021/06/22 04:29:00;;;;;;;22.15;8.45;;;;;;;;;;5136173;27;20044;-60
2021/06/22 04:31:26;;;;;;;17.80;8.80;;;;;;;;;;5118079;28;20406;-60
2021/06/22 04:33:53;;;;;;;18.40;8.45;;;;;;;;;;5117157;27;20061;-60
2021/06/22 04:36:20;;;;;;;16.33;8.10;;;;;;;;;;5115353;28;20050;-60
2021/06/22 04:38:50;;;;;;;18.20;8.57;;;;;;;;;;5119279;27;20039;-60
2021/06/22 04:41:17;;;;;;;15.55;7.75;;;;;;;;;;5113467;27;20177;-60
2021/06/22 04:43:44;;;;;;;17.63;7.65;;;;;;;;;;5121009;27;20439;-60
2021/06/22 04:46:11;;;;;;;22.30;7.88;;;;;;;;;;5112545;27;20063;-60
2021/06/22 04:48:39;;;;;;;18.65;7.65;;;;;;;;;;5114160;28;20074;-60
2021/06/22 04:51:06;;;;;;;13.60;6.88;;;;;;;;;;5110720;27;20042;-60
2021/06/22 04:53:33;;;;;;;15.65;7.25;;;;;;;;;;5111306;27;20127;-60
2021/06/22 04:56:00;;;;;;;19.45;7.57;;;;;;;;;;5115488;27;20035;-60
2021/06/22 04:58:28;;;;;;;18.88;7.40;;;;;;;;;;5115722;27;20036;-60
2021/06/22 05:00:55;;;;;;;16.73;7.27;;;;;;;;;;5112426;27;20047;-60
2021/06/22 05:03:21;;;;;;;13.60;7.20;;;;;;;;;;5112184;27;20982;-61
2021/06/22 05:05:49;;;;;;;15.18;7.80;;;;;;;;;;5116515;27;20093;-61
2021/06/22 05:08:16;;;;;;;14.45;7.32;;;;;;;;;;5110697;27;20039;-60
2021/06/22 05:10:42;;;;;;;15.63;6.87;;;;;;;;;;5113067;28;20036;-60
2021/06/22 05:13:09;;;;;;;13.32;6.85;;;;;;;;;;5111622;27;20085;-60
2021/06/22 05:15:38;;;;;;;14.27;6.80;;;;;;;;;;5109719;28;20119;-60
2021/06/22 05:18:04;;;;;;;13.70;7.20;;;;;;;;;;5112254;27;20050;-60
2021/06/22 05:20:32;;;;;;;15.38;7.32;;;;;;;;;;5113186;27;20577;-60
2021/06/22 05:22:58;;;;;;;16.27;7.43;;;;;;;;;;5113335;28;20042;-60
2021/06/22 05:25:25;;;;;;;14.82;7.00;;;;;;;;;;5113652;27;20101;-60
2021/06/22 05:27:54;;;;;;;18.38;7.35;;;;;;;;;;5115451;27;20039;-60
2021/06/22 05:30:20;;;;;;;17.52;7.03;;;;;;;;;;5111667;27;20052;-60
2021/06/22 05:32:47;;;;;;;16.67;7.10;;;;;;;;;;5107755;27;20085;-61
2021/06/22 05:35:15;;;;;;;12.50;6.82;;;;;;;;;;5111293;27;20039;-60
2021/06/22 05:37:41;;;;;;;13.13;6.70;;;;;;;;;;5099233;27;20052;-60
2021/06/22 05:40:09;;;;;;;13.68;6.25;;;;;;;;;;5106158;27;20118;-60
2021/06/22 05:42:36;;;;;;;18.33;7.03;;;;;;;;;;5098056;28;20085;-60
2021/06/22 05:45:03;;;;;;;17.30;7.03;;;;;;;;;;5095568;28;20063;-60
2021/06/22 05:47:30;;;;;;;;;;;;;;;;;;5095994;28;20059;-61
2021/06/22 05:49:59;;;;;;;;;;;;;;;;;;5098244;27;19920;-60
2021/06/22 05:52:26;;;;;;;16.70;6.65;;;;;;;;;;5102252;28;20528;-60
2021/06/22 05:54:52;;;;;;;11.57;6.37;;;;;;;;;;5098940;28;20514;-60
2021/06/22 05:57:19;;;;;;;14.23;6.25;;;;;;;;;;5099154;28;21240;-60
2021/06/22 05:59:46;;;;;;;12.05;5.97;;;;;;;;;;5093415;28;20044;-60
2021/06/22 06:02:13;;;;;;;13.40;6.60;;;;;;;;;;5093736;28;20070;-60
2021/06/22 06:04:40;;;;;;;15.18;6.40;;;;;;;;;;5092061;28;20514;-60
2021/06/22 06:07:06;;;;;;;14.63;6.78;;;;;;;;;;5098747;28;20044;-60
2021/06/22 06:09:33;;;;;;;15.67;6.30;;;;;;;;;;5097619;27;20060;-60
2021/06/22 06:12:03;;;;;;;11.90;6.43;;;;;;;;;;5097444;28;20053;-61
2021/06/22 06:14:29;;;;;;;16.23;5.63;;;;;;;;;;5103466;27;20123;-61
2021/06/22 06:16:57;;;;;;;13.95;6.15;;;;;;;;;;5096607;28;20117;-61
2021/06/22 06:19:24;;;;;;;14.88;6.82;;;;;;;;;;5099307;28;20040;-61
2021/06/22 06:21:51;;;;;;;19.53;6.27;;;;;;;;;;5095151;28;20176;-60
2021/06/22 06:24:18;;;;;;;13.37;6.50;;;;;;;;;;5100856;28;20544;-61
2021/06/22 06:31:57;;;;;;;9.48;5.65;;;;;;;;;;5093970;28;20422;-60
2021/06/22 06:34:24;;;;;;;11.35;5.75;;;;;;;;;;5097421;28;20032;-60
2021/06/22 06:36:51;;;;;;;10.07;5.77;;;;;;;;;;5100150;28;20036;-61
2021/06/22 06:39:19;;;;;;;9.00;5.32;;;;;;;;;;5096973;28;20047;-60
2021/06/22 06:41:46;;;;;;;14.13;6.17;;;;;;;;;;5102081;28;20048;-60
2021/06/22 06:44:13;;;;;;;14.95;6.28;;;;;;;;;;5095623;28;20470;-61
2021/06/22 06:46:41;;;;;;;14.80;5.85;;;;;;;;;;5099034;28;20040;-61
2021/06/22 06:49:08;;;;;;;14.48;6.13;;;;;;;;;;5100887;28;20048;-61
2021/06/22 06:51:36;;;;;;;9.50;5.40;;;;;;;;;;5100551;28;20967;-61
2021/06/22 06:54:03;;;;;;;10.07;4.97;;;;;;;;;;5100068;27;20041;-60
2021/06/22 06:56:30;;;;;;;6.30;4.80;;;;;;;;;;5097304;27;20051;-61
2021/06/22 06:58:59;;;;;;;11.32;5.40;;;;;;;;;;5096498;27;20039;-61
2021/06/22 07:01:28;;;;;;;12.85;5.40;;;;;;;;;;5093484;28;20051;-60
2021/06/22 07:03:55;;;;;;;10.68;5.00;;;;;;;;;;5097916;28;20087;-61
2021/06/22 07:06:23;;;;;;;13.27;5.38;;;;;;;;;;5095492;27;20047;-61
2021/06/22 07:08:51;;;;;;;14.00;5.40;;;;;;;;;;5098923;28;20036;-61
2021/06/22 07:11:21;;;;;;;15.38;5.10;;;;;;;;;;5098681;27;20043;-61
2021/06/22 07:13:49;;;;;;;10.85;4.30;;;;;;;;;;5097168;28;20039;-61
2021/06/22 07:16:16;;;;;;;11.80;4.85;;;;;;;;;;5096365;28;20054;-61
2021/06/22 07:18:43;;;;;;;7.80;4.57;;;;;;;;;;5100008;28;20048;-61
2021/06/22 07:21:10;;;;;;;8.27;4.80;;;;;;;;;;5095135;28;20847;-61
2021/06/22 07:23:36;;;;;;;8.80;4.45;;;;;;;;;;5095213;28;20055;-61
2021/06/22 07:26:03;;;;;;;10.32;5.22;;;;;;;;;;5098352;28;20139;-61
2021/06/22 07:28:30;;;;;;;8.30;4.47;;;;;;;;;;5094056;28;20071;-61
2021/06/22 07:30:58;;;;;;;11.38;5.13;;;;;;;;;;5094239;28;20511;-61
2021/06/22 07:33:25;;;;;;;11.77;4.65;;;;;;;;;;5103264;28;20047;-61
2021/06/22 07:35:52;;;;;;;8.85;4.25;;;;;;;;;;5094276;28;20027;-61
2021/06/22 07:38:19;;;;;;;8.88;5.10;;;;;;;;;;5093532;28;20503;-61
2021/06/22 07:40:46;;;;;;;9.63;4.77;;;;;;;;;;5098652;28;20048;-61
2021/06/22 07:43:14;;;;;;;10.40;4.97;;;;;;;;;;5102243;27;20048;-61
2021/06/22 07:45:42;;;;;;;11.85;4.47;;;;;;;;;;5097567;28;20080;-61
2021/06/22 07:48:10;;;;;;;6.95;4.57;;;;;;;;;;5101851;27;20047;-61
2021/06/22 07:50:37;;;;;;;11.32;4.78;;;;;;;;;;5093866;28;20038;-61
2021/06/22 07:53:05;;;;;;;9.10;4.28;;;;;;;;;;5095506;28;20040;-61
2021/06/22 07:55:32;;;;;;;;;;;;;;;;;;5093576;28;20078;-61
2021/06/22 07:57:59;;;;;;;9.88;4.32;;;;;;;;;;5097097;27;19973;-61
2021/06/22 08:00:34;;;;;;;10.03;3.87;;;;;;;;;;5096449;28;20126;-61
2021/06/22 08:03:05;;;;;;;9.63;3.60;;;;;;;;;;5098422;28;20369;-61
2021/06/22 08:05:33;;;;;;;10.07;3.67;;;;;;;;;;5094899;28;20047;-61
2021/06/22 08:08:01;;;;;;;8.82;3.25;;;;;;;;;;5097179;28;20043;-61
2021/06/22 08:10:28;;;;;;;11.85;4.40;;;;;;;;;;5094656;28;20513;-61
2021/06/22 08:12:57;;;;;;;10.40;3.88;;;;;;;;;;5094139;28;20042;-61
2021/06/22 08:15:24;;;;;;;8.13;3.92;;;;;;;;;;5096713;28;20044;-61
2021/06/22 08:17:52;;;;;;;7.18;4.35;;;;;;;;;;5099265;28;20142;-61
2021/06/22 08:20:19;;;;;;;14.98;3.70;;;;;;;;;;5096456;28;20035;-61
2021/06/22 08:22:52;;;;;;;7.78;3.80;;;;;;;;;;5102864;28;20043;-61
2021/06/22 08:25:19;;;;;;;7.43;3.55;;;;;;;;;;5101935;28;20060;-61
2021/06/22 08:27:47;;;;;;;14.90;4.07;;;;;;;;;;5094544;28;20495;-61
2021/06/22 08:30:15;;;;;;;9.80;4.05;;;;;;;;;;5094651;28;20036;-61
2021/06/22 08:32:42;;;;;;;9.45;4.18;;;;;;;;;;5100744;28;20430;-61
2021/06/22 08:35:09;;;;;;;11.13;3.88;;;;;;;;;;5094026;28;20050;-61
2021/06/22 08:37:35;;;;;;;10.02;4.22;;;;;;;;;;5095588;28;20044;-61
2021/06/22 08:40:03;;;;;;;9.45;4.22;;;;;;;;;;5094578;28;20035;-61
2021/06/22 08:42:30;;;;;;;7.05;3.78;;;;;;;;;;5097447;28;20043;-61
2021/06/22 08:44:58;;;;;;;7.32;3.60;;;;;;;;;;5094479;28;20113;-61
2021/06/22 08:47:25;;;;;;;10.57;4.15;;;;;;;;;;5099039;28;20121;-61
2021/06/22 08:49:52;;;;;;;;;;;;;;;;;;5094185;28;20043;-61
2021/06/22 08:52:20;;;;;;;9.25;3.92;;;;;;;;;;5100946;28;19920;-61
2021/06/22 08:54:47;;;;;;;7.75;3.72;;;;;;;;;;5097127;28;20066;-61
2021/06/22 08:57:13;;;;;;;6.85;3.95;;;;;;;;;;5096238;28;20577;-61
2021/06/22 08:59:43;;;;;;;8.77;3.70;;;;;;;;;;5098148;28;20044;-61
2021/06/22 09:02:10;;;;;;;6.72;3.85;;;;;;;;;;5094606;28;20078;-61
2021/06/22 09:04:37;;;;;;;8.50;3.92;;;;;;;;;;5097846;28;20043;-61
2021/06/22 09:07:04;;;;;;;10.73;4.00;;;;;;;;;;5096938;28;20078;-61
2021/06/22 09:09:34;;;;;;;7.15;3.88;;;;;;;;;;5093658;28;20424;-61
2021/06/22 09:12:03;;;;;;;11.43;4.43;;;;;;;;;;5092827;28;20105;-61
2021/06/22 09:14:33;;;;;;;10.35;3.97;;;;;;;;;;5100617;28;20066;-61
2021/06/22 09:17:01;;;;;;;10.38;4.07;;;;;;;;;;5101137;28;20036;-61
2021/06/22 09:19:30;;;;;;;10.25;4.30;;;;;;;;;;5098662;28;20075;-61
2021/06/22 09:21:57;;;;;;;8.32;3.92;;;;;;;;;;5100372;28;20127;-62
2021/06/22 09:24:24;;;;;;;7.50;3.92;;;;;;;;;;5098725;28;20093;-61
2021/06/22 09:26:55;;;;;;;7.43;4.10;;;;;;;;;;5098169;28;20048;-61
2021/06/22 09:29:21;;;;;;;9.43;4.10;;;;;;;;;;5097004;28;20056;-61
2021/06/22 09:31:56;;;;;;;9.65;4.65;;;;;;;;;;5103112;28;20075;-61
2021/06/22 09:34:24;;;;;;;8.68;4.22;;;;;;;;;;5098678;28;20070;-61
2021/06/22 09:36:57;;;;;;;11.60;4.75;;;;;;;;;;5097978;28;20044;-61
2021/06/22 09:39:25;;;;;;;6.35;4.40;;;;;;;;;;5096820;27;20085;-61
2021/06/22 09:41:52;;;;;;;10.02;4.82;;;;;;;;;;5102904;27;20054;-61
2021/06/22 09:44:23;;;;;;;7.75;4.35;;;;;;;;;;5094607;28;20499;-61
2021/06/22 09:46:52;;;;;;;9.68;4.38;;;;;;;;;;5099787;28;20050;-61
2021/06/22 09:49:23;;;;;;;10.75;4.70;;;;;;;;;;5091711;28;20036;-61
2021/06/22 09:52:13;;;;;;;9.75;4.72;;;;;;;;;;5099160;28;20159;-61
2021/06/22 09:54:50;;;;;;;12.80;5.07;;;;;;;;;;5099481;28;20194;-61
2021/06/22 09:57:18;;;;;;;12.52;4.70;;;;;;;;;;5098569;28;20044;-61
2021/06/22 09:59:45;;;;;;;;;;;;;;;;;;5099901;28;20039;-61
2021/06/22 10:02:13;;;;;;;9.60;4.68;;;;;;;;;;5101751;27;20001;-61
2021/06/22 10:04:47;;;;;;;8.80;4.75;;;;;;;;;;5100864;28;20036;-61
2021/06/22 10:07:14;;;;;;;9.18;4.20;;;;;;;;;;5101735;28;20088;-61
2021/06/22 10:09:42;;;;;;;8.63;4.38;;;;;;;;;;5104876;28;20096;-61
2021/06/22 10:12:09;;;;;;;10.95;5.10;;;;;;;;;;5102906;28;20461;-61
2021/06/22 10:14:36;;;;;;;8.05;4.40;;;;;;;;;;5090273;28;20040;-61
2021/06/22 10:17:04;;;;;;;11.85;5.30;;;;;;;;;;5099257;28;20051;-61
2021/06/22 10:19:31;;;;;;;7.65;4.38;;;;;;;;;;5113081;27;20044;-61
2021/06/22 10:21:59;;;;;;;11.82;4.80;;;;;;;;;;5101227;28;20040;-61
2021/06/22 10:24:27;;;;;;;10.93;5.15;;;;;;;;;;5098148;28;20116;-61
2021/06/22 10:26:55;;;;;;;9.15;4.70;;;;;;;;;;5105789;28;20039;-61
2021/06/22 10:29:23;;;;;;;7.07;4.38;;;;;;;;;;5101325;28;20043;-61
2021/06/22 10:31:51;;;;;;;11.05;5.10;;;;;;;;;;5099717;28;20040;-61
2021/06/22 10:34:18;;;;;;;13.27;4.95;;;;;;;;;;5094743;28;20033;-61
2021/06/22 10:36:47;;;;;;;13.13;5.22;;;;;;;;;;5096694;28;20134;-62
2021/06/22 10:39:34;;;;;;;10.27;5.28;;;;;;;;;;5097635;28;20104;-61
2021/06/22 10:42:13;;;;;;;7.85;5.18;;;;;;;;;;5074156;28;20564;-61
2021/06/22 10:44:44;;;;;;;9.48;5.15;;;;;;;;;;5102092;27;20063;-61
2021/06/22 10:47:30;;;;;;;13.13;5.57;;;;;;;;;;5099864;28;20109;-61
2021/06/22 10:50:00;;;;;;;10.65;5.38;;;;;;;;;;5098157;28;20609;-61
2021/06/22 10:52:41;;;;;;;16.52;5.60;;;;;;;;;;5099704;28;20044;-61
2021/06/22 10:55:36;;;;;;;9.50;5.13;;;;;;;;;;5095738;28;20043;-61
2021/06/22 10:58:04;;;;;;;9.18;5.03;;;;;;;;;;5085605;28;20047;-61
2021/06/22 11:00:41;;;;;;;11.88;5.15;;;;;;;;;;5095531;27;20047;-61
2021/06/22 11:03:18;;;;;;;9.82;5.20;;;;;;;;;;5104813;27;20458;-61
2021/06/22 11:05:47;;;;;;;12.03;5.63;;;;;;;;;;5093500;28;20044;-61
2021/06/22 11:08:14;;;;;;;10.48;4.95;;;;;;;;;;5096983;28;20808;-61
2021/06/22 11:10:47;;;;;;;8.30;4.90;;;;;;;;;;5096389;28;20110;-61
2021/06/22 11:13:32;;;;;;;10.20;5.13;;;;;;;;;;5100660;28;20633;-61
2021/06/22 11:16:05;;;;;;;11.95;5.30;;;;;;;;;;5100482;28;20032;-61
2021/06/22 11:18:47;;;;;;;11.45;4.60;;;;;;;;;;5101354;28;20088;-61
2021/06/22 11:21:16;;;;;;;7.35;4.78;;;;;;;;;;5103907;28;20522;-61
2021/06/22 11:24:05;;;;;;;11.63;4.82;;;;;;;;;;5099828;28;20060;-61
2021/06/22 11:26:38;;;;;;;8.85;4.93;;;;;;;;;;5059878;28;20060;-61
2021/06/22 11:29:05;;;;;;;12.18;5.32;;;;;;;;;;5059991;28;20037;-61
2021/06/22 11:31:35;;;;;;;10.43;5.13;;;;;;;;;;5061162;28;20053;-61
2021/06/22 11:34:12;;;;;;;11.02;5.15;;;;;;;;;;5062805;28;20048;-61
2021/06/22 11:36:44;;;;;;;12.15;5.15;;;;;;;;;;5062127;28;20044;-61
2021/06/22 11:39:15;;;;;;;9.15;4.40;;;;;;;;;;5068427;28;20048;-61
2021/06/22 11:42:02;;;;;;;9.38;4.68;;;;;;;;;;5064278;28;20482;-61
2021/06/22 11:44:29;;;;;;;12.43;4.65;;;;;;;;;;5058743;28;20102;-61
2021/06/22 11:46:57;;;;;;;11.17;4.30;;;;;;;;;;5065781;28;20124;-61
2021/06/22 11:49:44;;;;;;;8.20;3.92;;;;;;;;;;5065574;28;20131;-61
2021/06/22 11:52:12;;;;;;;5.47;4.15;;;;;;;;;;5059071;28;20102;-61
2021/06/22 11:54:47;;;;;;;8.93;4.65;;;;;;;;;;5059273;28;20040;-61
2021/06/22 11:57:34;;;;;;;12.35;4.78;;;;;;;;;;5063361;28;20072;-61
2021/06/22 12:00:06;;;;;;;9.20;4.20;;;;;;;;;;5065805;28;20040;-61
2021/06/22 12:02:38;;;;;;;10.52;4.55;;;;;;;;;;5059769;28;20138;-61
2021/06/22 12:05:11;;;;;;;11.43;4.65;;;;;;;;;;5057338;28;20491;-61
2021/06/22 12:07:49;;;;;;;10.07;4.97;;;;;;;;;;5068950;28;20056;-61
2021/06/22 12:10:16;;;;;;;13.20;5.05;;;;;;;;;;5065337;28;20446;-61
2021/06/22 12:12:44;;;;;;;9.38;4.63;;;;;;;;;;5061232;28;20040;-61
2021/06/22 12:15:11;;;;;;;8.55;5.07;;;;;;;;;;5064568;28;20135;-61
2021/06/22 12:17:38;;;;;;;10.02;4.63;;;;;;;;;;5066847;28;20041;-61
2021/06/22 12:20:05;;;;;;;;;;;;;;;;;;5064152;28;20119;-62
2021/06/22 12:22:32;;;;;;;12.02;4.93;;;;;;;;;;5061188;28;20394;-61
2021/06/22 12:24:58;;;;;;;12.47;4.93;;;;;;;;;;5074621;28;20040;-61
2021/06/22 12:27:25;;;;;;;8.27;4.53;;;;;;;;;;5096719;28;20351;-61
2021/06/22 12:29:57;;;;;;;8.15;4.45;;;;;;;;;;5093579;28;20029;-61
2021/06/22 12:32:24;;;;;;;12.20;4.70;;;;;;;;;;5097293;28;20238;-61
2021/06/22 12:34:51;;;;;;;;;;;;;;;;;;5095717;28;20075;-61
2021/06/22 12:37:20;;;;;;;13.45;4.88;;;;;;;;;;5094942;28;19955;-61
2021/06/22 12:39:49;;;;;;;10.48;4.72;;;;;;;;;;5093195;28;20047;-61
2021/06/22 12:42:20;;;;;;;11.20;4.57;;;;;;;;;;5095447;28;20558;-61
2021/06/22 12:44:48;;;;;;;7.18;4.47;;;;;;;;;;5097357;28;20071;-61
2021/06/22 12:47:14;;;;;;;8.50;4.43;;;;;;;;;;5095437;28;20075;-61
2021/06/22 12:49:43;;;;;;;14.45;5.15;;;;;;;;;;5101676;28;20035;-61
2021/06/22 12:52:10;;;;;;;7.35;5.00;;;;;;;;;;5099187;28;20065;-61
2021/06/22 12:54:37;;;;;;;12.70;5.10;;;;;;;;;;5097750;28;20060;-61
2021/06/22 12:57:21;;;;;;;9.63;5.13;;;;;;;;;;5101761;27;20072;-61
2021/06/22 12:59:48;;;;;;;10.57;4.82;;;;;;;;;;5098819;28;20062;-61
2021/06/22 13:02:15;;;;;;;13.02;5.32;;;;;;;;;;5094381;28;20043;-60
2021/06/22 13:04:42;;;;;;;;;;;;;;;;;;5103200;27;20109;-61
2021/06/22 13:07:10;;;;;;;11.65;5.55;;;;;;;;;;5102249;27;19927;-61
2021/06/22 13:09:38;;;;;;;10.02;5.30;;;;;;;;;;5101091;28;20039;-60
2021/06/22 13:12:32;;;;;;;13.32;6.53;;;;;;;;;;5103060;28;20036;-61
2021/06/22 13:15:01;;;;;;;11.82;5.30;;;;;;;;;;5094608;27;20048;-61
2021/06/22 13:17:28;;;;;;;15.90;5.72;;;;;;;;;;5103470;27;20483;-61
2021/06/22 13:20:05;;;;;;;12.82;5.63;;;;;;;;;;5099447;28;20054;-61
2021/06/22 13:22:49;;;;;;;10.13;5.80;;;;;;;;;;5101383;28;20044;-61
2021/06/22 13:25:18;;;;;;;12.10;5.50;;;;;;;;;;5101028;28;20044;-61
2021/06/22 13:27:47;;;;;;;9.80;5.68;;;;;;;;;;5103500;28;20048;-61
2021/06/22 13:30:17;;;;;;;9.02;5.32;;;;;;;;;;5098296;28;20114;-61
2021/06/22 13:32:54;;;;;;;11.57;4.95;;;;;;;;;;5097652;28;20495;-61
2021/06/22 13:35:28;;;;;;;12.00;5.65;;;;;;;;;;5094131;28;20046;-61
2021/06/22 13:37:57;;;;;;;11.25;5.55;;;;;;;;;;5098890;28;20118;-61
2021/06/22 13:40:24;;;;;;;10.07;5.43;;;;;;;;;;5097788;28;20744;-61
2021/06/22 13:42:54;;;;;;;;;;;;;;;;;;5101030;28;20053;-61
2021/06/22 13:45:21;;;;;;;8.40;5.05;;;;;;;;;;5097506;28;19920;-61
2021/06/22 13:47:48;;;;;;;14.05;5.35;;;;;;;;;;5106347;27;20082;-61
2021/06/22 13:50:17;;;;;;;10.27;5.40;;;;;;;;;;5101154;28;20039;-61
2021/06/22 13:52:45;;;;;;;11.50;5.10;;;;;;;;;;5100934;27;20305;-61
2021/06/22 13:55:13;;;;;;;12.60;5.32;;;;;;;;;;5094409;28;20528;-61
2021/06/22 13:57:39;;;;;;;17.55;6.47;;;;;;;;;;5096195;28;20115;-61
2021/06/22 14:00:07;;;;;;;8.93;5.03;;;;;;;;;;5094335;28;20048;-61
2021/06/22 14:02:37;;;;;;;13.50;4.80;;;;;;;;;;5097315;27;20054;-61
2021/06/22 14:05:04;;;;;;;12.90;5.07;;;;;;;;;;5094902;28;20480;-61
2021/06/22 14:07:31;;;;;;;8.32;5.15;;;;;;;;;;5101509;28;20051;-61
2021/06/22 14:09:58;;;;;;;12.27;5.50;;;;;;;;;;5098170;28;20128;-61
2021/06/22 14:12:24;;;;;;;14.95;5.35;;;;;;;;;;5100285;28;20290;-61
2021/06/22 14:14:51;;;;;;;9.93;5.22;;;;;;;;;;5099986;28;20036;-61
2021/06/22 14:17:18;;;;;;;10.97;5.20;;;;;;;;;;5100067;28;20085;-61
2021/06/22 14:19:44;;;;;;;12.32;5.55;;;;;;;;;;5100437;28;20031;-61
2021/06/22 14:22:11;;;;;;;8.70;5.10;;;;;;;;;;5095143;28;20139;-61
2021/06/22 14:24:38;;;;;;;;;;;;;;;;;;5097691;28;20048;-61
2021/06/22 14:27:05;;;;;;;14.15;5.50;;;;;;;;;;5100591;28;20415;-61
2021/06/22 14:29:32;;;;;;;10.27;4.63;;;;;;;;;;5098438;28;20052;-61
2021/06/22 14:31:59;;;;;;;12.43;5.30;;;;;;;;;;5096013;28;20054;-61
2021/06/22 14:34:25;;;;;;;12.77;6.03;;;;;;;;;;5095353;28;20036;-61
2021/06/22 14:36:52;;;;;;;10.55;5.07;;;;;;;;;;5098614;27;20384;-60
2021/06/22 14:39:19;;;;;;;10.63;5.50;;;;;;;;;;5096146;28;20043;-61
2021/06/22 14:41:46;;;;;;;13.27;5.30;;;;;;;;;;5098471;27;20068;-61
2021/06/22 14:44:13;;;;;;;12.82;5.35;;;;;;;;;;5097470;28;20135;-61
2021/06/22 14:46:40;;;;;;;11.15;5.20;;;;;;;;;;5098148;28;20051;-61
2021/06/22 14:49:06;;;;;;;18.67;5.70;;;;;;;;;;5097633;28;20048;-61
2021/06/22 14:51:33;;;;;;;15.68;5.38;;;;;;;;;;5099767;28;20514;-61
2021/06/22 14:54:00;;;;;;;11.27;5.03;;;;;;;;;;5104503;27;20116;-61
2021/06/22 14:56:27;;;;;;;8.45;5.13;;;;;;;;;;5097552;27;20294;-61
2021/06/22 14:58:54;;;;;;;14.52;5.22;;;;;;;;;;5094189;28;20036;-61
2021/06/22 15:01:21;;;;;;;12.68;5.20;;;;;;;;;;5099631;28;20502;-61
2021/06/22 15:03:48;;;;;;;16.27;5.40;;;;;;;;;;5098544;28;20084;-61
2021/06/22 15:06:17;;;;;;;13.55;5.28;;;;;;;;;;5100389;28;20035;-61
2021/06/22 15:08:44;;;;;;;12.20;5.32;;;;;;;;;;5098585;28;20036;-61
2021/06/22 15:11:11;;;;;;;11.75;5.00;;;;;;;;;;5099193;28;20514;-61
2021/06/22 15:13:44;;;;;;;8.93;5.00;;;;;;;;;;5097866;28;20101;-61
2021/06/22 15:16:11;;;;;;;17.17;5.45;;;;;;;;;;5094762;28;20048;-61
2021/06/22 15:18:38;;;;;;;;;;;;;;;;;;5097933;28;20032;-61
2021/06/22 15:21:05;;;;;;;12.20;5.50;;;;;;;;;;5097890;28;20299;-61
2021/06/22 15:23:32;;;;;;;11.45;5.00;;;;;;;;;;5096165;28;20043;-61
2021/06/22 15:25:59;;;;;;;15.87;6.07;;;;;;;;;;5101072;28;20060;-61
2021/06/22 15:28:26;;;;;;;16.77;6.03;;;;;;;;;;5090221;28;20055;-61
2021/06/22 15:30:52;;;;;;;11.98;5.97;;;;;;;;;;5094355;28;20032;-61
2021/06/22 15:33:19;;;;;;;12.48;5.95;;;;;;;;;;5099383;27;20040;-61
2021/06/22 15:35:47;;;;;;;13.70;5.70;;;;;;;;;;5096566;28;20042;-60
2021/06/22 15:38:15;;;;;;;10.38;5.88;;;;;;;;;;5098860;28;20499;-59
2021/06/22 15:40:43;;;;;;;10.35;5.68;;;;;;;;;;5095414;28;20401;-59
2021/06/22 15:43:10;;;;;;;13.50;5.57;;;;;;;;;;5064390;28;20044;-59
2021/06/22 15:45:37;;;;;;;13.65;6.05;;;;;;;;;;5068003;28;20063;-59
2021/06/22 15:48:06;;;;;;;11.30;6.82;;;;;;;;;;5065838;28;20411;-58
2021/06/22 15:50:35;;;;;;;11.77;6.03;;;;;;;;;;5060509;28;20043;-58
2021/06/22 15:53:08;;;;;;;13.32;7.03;;;;;;;;;;5060927;28;20098;-57
2021/06/22 15:55:36;;;;;;;10.07;6.90;;;;;;;;;;5062296;28;20048;-59
2021/06/22 15:58:02;;;;;;;;;;;;;;;;;;5066843;28;20047;-58